CTO weather

Calverton Executive Airpark
Calverton, New York, United States

Public forecast

Using degrees Fahrenheit for public forecast. Weather courtesy of forecast.io.

METAR (pilot weather report)

Closest report is Brookhaven Airport, 6.6 nm (12.2 km) SSW. Retrieved 2019/05/23 01:56 UTC (15 minutes ago):

KHWV 230156Z AUTO 23006KT 10SM CLR 16/09 A3024 RMK AO2 SLP240 T01560094

TAF (pilot weather forecast)

Forecast is more than 12 hours old.

Closest forecast is Long Island Mac Arthur Airport, 15.7 nm (29.2 km) WSW. Retrieved 2019/05/22 00:36 UTC (1 day ago):

TAF KISP 222334Z 2300/2324 31007KT P6SM SCT200 FM230100 19005KT P6SM BKN120 FM231200 19010KT P6SM SCT040 BKN080 FM231500 20014G21KT P6SM BKN040 OVC080